Time,TemperatureF,DewpointF,PressureIn,WindDirection,WindDirectionDegrees,WindSpeedMPH,WindSpeedGustMPH,Humidity,HourlyPrecipIn,Conditions,Clouds,dailyrainin,SoftwareType,DateUTC
2013-04-27 00:01:00,56.6,35.5,31.02,NNW,338,10.9,10.9,45,0.00,,CLR,0.00,VWS V14.00,2013-04-27 07:01:00,
2013-04-27 00:06:00,56.4,35.9,31.03,NNW,338,13.1,13.1,46,0.00,,CLR,0.00,VWS V14.00,2013-04-27 07:06:00,
2013-04-27 00:11:00,56.1,36.7,31.03,NNW,338,9.3,9.3,48,0.00,,CLR,0.00,VWS V14.00,2013-04-27 07:11:00,
2013-04-27 00:16:00,55.7,37.4,31.02,NNW,338,8.0,8.0,50,0.00,,CLR,0.00,VWS V14.00,2013-04-27 07:16:00,
2013-04-27 00:21:00,55.4,35.5,31.03,NNW,338,7.8,7.8,47,0.00,,CLR,0.00,VWS V14.00,2013-04-27 07:21:00,
2013-04-27 00:26:00,55.5,35.1,31.03,NNW,338,6.4,6.4,46,0.00,,CLR,0.00,VWS V14.00,2013-04-27 07:26:00,
2013-04-27 00:31:00,55.5,34.5,31.03,WNW,292,11.1,11.1,45,0.00,,CLR,0.00,VWS V14.00,2013-04-27 07:31:00,
2013-04-27 00:36:00,55.4,34.4,31.03,NW,315,0.0,0.0,45,0.00,,CLR,0.00,VWS V14.00,2013-04-27 07:36:00,
2013-04-27 00:41:00,55.2,34.2,31.03,NW,315,0.0,0.0,45,0.00,,CLR,0.00,VWS V14.00,2013-04-27 07:41:00,
2013-04-27 00:46:00,54.5,33.6,31.03,NW,315,0.0,0.0,45,0.00,,CLR,0.00,VWS V14.00,2013-04-27 07:46:00,
2013-04-27 00:51:00,53.9,33.6,31.03,NW,315,0.0,0.0,46,0.00,,CLR,0.00,VWS V14.00,2013-04-27 07:51:00,
2013-04-27 00:56:00,53.7,34.5,31.03,North,0,0.0,0.0,48,0.00,,CLR,0.00,VWS V14.00,2013-04-27 07:56:00,
2013-04-27 01:01:00,53.4,35.2,31.03,North,0,6.4,6.4,50,0.00,,CLR,0.00,VWS V14.00,2013-04-27 08:01:00,
2013-04-27 01:06:00,53.6,35.9,31.03,NNE,22,2.6,2.6,51,0.00,,CLR,0.00,VWS V14.00,2013-04-27 08:06:00,
2013-04-27 01:11:00,53.4,36.2,31.03,NNE,22,0.0,0.0,52,0.00,,CLR,0.00,VWS V14.00,2013-04-27 08:11:00,
2013-04-27 01:16:00,53.2,37.5,31.03,NNE,22,0.0,0.0,55,0.00,,CLR,0.00,VWS V14.00,2013-04-27 08:16:00,
2013-04-27 01:21:00,52.8,37.1,31.03,North,0,0.0,0.0,55,0.00,,CLR,0.00,VWS V14.00,2013-04-27 08:21:00,
2013-04-27 01:26:00,52.5,36.3,31.03,North,0,4.6,4.6,54,0.00,,CLR,0.00,VWS V14.00,2013-04-27 08:26:00,
2013-04-27 01:31:00,52.5,36.3,31.03,NNE,22,4.6,4.6,54,0.00,,CLR,0.00,VWS V14.00,2013-04-27 08:31:00,
2013-04-27 01:36:00,52.5,36.3,31.03,North,0,3.8,3.8,54,0.00,,CLR,0.00,VWS V14.00,2013-04-27 08:36:00,
2013-04-27 01:41:00,52.5,35.9,31.03,North,0,4.9,4.9,53,0.00,,CLR,0.00,VWS V14.00,2013-04-27 08:41:00,
2013-04-27 01:46:00,52.5,35.9,31.03,NNE,22,2.4,2.4,53,0.00,,CLR,0.00,VWS V14.00,2013-04-27 08:46:00,
2013-04-27 01:51:00,52.5,36.8,31.03,NNE,22,0.0,0.0,55,0.00,,CLR,0.00,VWS V14.00,2013-04-27 08:51:00,
2013-04-27 01:56:00,51.9,37.6,31.03,ENE,68,2.2,2.2,58,0.00,,CLR,0.00,VWS V14.00,2013-04-27 08:56:00,
2013-04-27 02:01:00,51.6,37.8,31.03,NE,45,6.0,6.0,59,0.00,,CLR,0.00,VWS V14.00,2013-04-27 09:01:00,
2013-04-27 02:06:00,51.4,37.6,31.04,NE,45,0.6,0.6,59,0.00,,CLR,0.00,VWS V14.00,2013-04-27 09:06:00,
2013-04-27 02:11:00,51.2,37.4,31.04,NNE,22,0.0,0.0,59,0.00,,CLR,0.00,VWS V14.00,2013-04-27 09:11:00,
2013-04-27 02:16:00,51.0,37.6,31.04,NNE,22,0.0,0.0,60,0.00,,CLR,0.00,VWS V14.00,2013-04-27 09:16:00,
2013-04-27 02:21:00,50.7,37.8,31.03,NNE,22,4.0,4.0,61,0.00,,CLR,0.00,VWS V14.00,2013-04-27 09:21:00,
2013-04-27 02:26:00,50.3,37.4,31.03,NNE,22,0.0,0.0,61,0.00,,CLR,0.00,VWS V14.00,2013-04-27 09:26:00,
2013-04-27 02:31:00,50.1,37.6,31.04,NNE,22,2.0,2.0,62,0.00,,CLR,0.00,VWS V14.00,2013-04-27 09:31:00,
2013-04-27 02:36:00,49.8,38.1,31.04,North,0,8.5,8.5,64,0.00,,CLR,0.00,VWS V14.00,2013-04-27 09:36:00,
2013-04-27 02:41:00,49.8,38.5,31.04,North,0,4.9,4.9,65,0.00,,CLR,0.00,VWS V14.00,2013-04-27 09:41:00,
2013-04-27 02:46:00,50.1,38.8,31.04,North,0,6.0,6.0,65,0.00,,CLR,0.00,VWS V14.00,2013-04-27 09:46:00,
2013-04-27 02:51:00,49.8,38.9,31.03,North,0,6.7,6.7,66,0.00,,CLR,0.00,VWS V14.00,2013-04-27 09:51:00,
2013-04-27 02:56:00,49.8,38.5,31.03,North,0,7.8,7.8,65,0.00,,CLR,0.00,VWS V14.00,2013-04-27 09:56:00,
2013-04-27 03:01:00,50.1,38.8,31.03,North,0,6.4,6.4,65,0.00,,CLR,0.00,VWS V14.00,2013-04-27 10:01:00,
2013-04-27 03:06:00,50.1,38.8,31.03,NNE,22,6.2,6.2,65,0.00,,CLR,0.00,VWS V14.00,2013-04-27 10:06:00,
2013-04-27 03:11:00,49.8,38.5,31.03,North,0,0.0,0.0,65,0.00,,CLR,0.00,VWS V14.00,2013-04-27 10:11:00,
2013-04-27 03:16:00,49.8,38.5,31.03,NNE,22,0.0,0.0,65,0.00,,CLR,0.00,VWS V14.00,2013-04-27 10:16:00,
2013-04-27 03:21:00,49.6,37.9,31.03,NNE,22,1.7,1.7,64,0.00,,CLR,0.00,VWS V14.00,2013-04-27 10:21:00,
2013-04-27 03:26:00,49.2,38.0,31.03,NNE,22,0.0,0.0,65,0.00,,CLR,0.00,VWS V14.00,2013-04-27 10:26:00,
2013-04-27 03:31:00,48.9,38.1,31.03,NNE,22,0.0,0.0,66,0.00,,CLR,0.00,VWS V14.00,2013-04-27 10:31:00,
2013-04-27 03:36:00,48.5,38.1,31.03,North,0,4.2,4.2,67,0.00,,CLR,0.00,VWS V14.00,2013-04-27 10:36:00,
2013-04-27 03:41:00,48.5,38.4,31.03,NNW,338,2.9,2.9,68,0.00,,CLR,0.00,VWS V14.00,2013-04-27 10:41:00,
2013-04-27 03:46:00,48.5,38.1,31.03,NNW,338,3.1,3.1,67,0.00,,CLR,0.00,VWS V14.00,2013-04-27 10:46:00,
2013-04-27 03:51:00,48.3,38.6,31.03,North,0,2.6,2.6,69,0.00,,CLR,0.00,VWS V14.00,2013-04-27 10:51:00,
2013-04-27 03:56:00,48.2,38.5,31.03,NNW,338,4.2,4.2,69,0.00,,CLR,0.00,VWS V14.00,2013-04-27 10:56:00,
2013-04-27 04:01:00,48.0,38.3,31.03,NNW,338,0.0,0.0,69,0.00,,CLR,0.00,VWS V14.00,2013-04-27 11:01:00,
2013-04-27 04:06:00,47.8,37.8,31.03,NNW,338,0.0,0.0,68,0.00,,CLR,0.00,VWS V14.00,2013-04-27 11:06:00,
2013-04-27 04:11:00,47.3,37.3,31.03,NNW,338,0.0,0.0,68,0.00,,CLR,0.00,VWS V14.00,2013-04-27 11:11:00,
2013-04-27 04:16:00,46.9,37.3,31.03,NNW,338,1.3,1.3,69,0.00,,CLR,0.00,VWS V14.00,2013-04-27 11:16:00,
2013-04-27 04:21:00,47.1,37.8,31.03,NNW,338,4.2,4.2,70,0.00,,CLR,0.00,VWS V14.00,2013-04-27 11:21:00,
2013-04-27 04:26:00,47.1,37.8,31.03,NNW,338,1.3,1.3,70,0.00,,CLR,0.00,VWS V14.00,2013-04-27 11:26:00,
2013-04-27 04:31:00,46.9,37.6,31.03,NNW,338,3.1,3.1,70,0.00,,CLR,0.00,VWS V14.00,2013-04-27 11:31:00,
2013-04-27 04:36:00,46.9,37.6,31.03,NNW,338,0.0,0.0,70,0.00,,CLR,0.00,VWS V14.00,2013-04-27 11:36:00,
2013-04-27 04:41:00,46.5,37.3,31.03,NNW,338,0.0,0.0,70,0.00,,CLR,0.00,VWS V14.00,2013-04-27 11:41:00,
2013-04-27 04:46:00,46.2,37.0,31.03,NNW,338,0.0,0.0,70,0.00,,CLR,0.00,VWS V14.00,2013-04-27 11:46:00,
2013-04-27 04:51:00,46.0,37.5,31.03,NNW,338,0.0,0.0,72,0.00,,CLR,0.00,VWS V14.00,2013-04-27 11:51:00,
2013-04-27 04:56:00,46.0,37.5,31.03,NNW,338,0.0,0.0,72,0.00,,CLR,0.00,VWS V14.00,2013-04-27 11:56:00,
2013-04-27 05:01:00,45.3,36.8,31.03,NNW,338,0.0,0.0,72,0.00,,CLR,0.00,VWS V14.00,2013-04-27 12:01:00,
2013-04-27 05:06:00,45.3,37.2,31.03,NNW,338,0.0,0.0,73,0.00,,CLR,0.00,VWS V14.00,2013-04-27 12:06:00,
2013-04-27 05:11:00,45.3,37.5,31.03,NNW,338,0.0,0.0,74,0.00,,CLR,0.00,VWS V14.00,2013-04-27 12:11:00,
2013-04-27 05:16:00,45.3,38.2,31.03,North,0,0.0,0.0,76,0.00,,CLR,0.00,VWS V14.00,2013-04-27 12:16:00,
2013-04-27 05:21:00,45.1,39.0,31.03,North,0,4.0,4.0,79,0.00,,CLR,0.00,VWS V14.00,2013-04-27 12:21:00,
2013-04-27 05:26:00,45.1,39.0,31.03,North,0,3.1,3.1,79,0.00,,CLR,0.00,VWS V14.00,2013-04-27 12:26:00,
2013-04-27 05:31:00,45.1,38.7,31.03,North,0,0.0,0.0,78,0.00,,CLR,0.00,VWS V14.00,2013-04-27 12:31:00,
2013-04-27 05:36:00,44.6,37.8,31.04,North,0,0.0,0.0,77,0.00,,CLR,0.00,VWS V14.00,2013-04-27 12:36:00,
2013-04-27 05:41:00,44.4,38.0,31.03,North,0,0.0,0.0,78,0.00,,CLR,0.00,VWS V14.00,2013-04-27 12:41:00,
2013-04-27 05:46:00,44.2,37.8,31.04,North,0,0.0,0.0,78,0.00,,CLR,0.00,VWS V14.00,2013-04-27 12:46:00,
2013-04-27 05:51:00,43.8,37.4,31.04,North,0,0.0,0.0,78,0.00,,CLR,0.00,VWS V14.00,2013-04-27 12:51:00,
2013-04-27 05:56:00,43.8,37.7,31.04,North,0,0.0,0.0,79,0.00,,CLR,0.00,VWS V14.00,2013-04-27 12:56:00,
2013-04-27 06:01:00,44.0,37.6,31.03,NE,45,0.0,0.0,78,0.00,,CLR,0.00,VWS V14.00,2013-04-27 13:01:00,
2013-04-27 06:06:00,44.0,37.6,31.03,NE,45,0.0,0.0,78,0.00,,CLR,0.00,VWS V14.00,2013-04-27 13:06:00,
2013-04-27 06:11:00,44.2,37.8,31.04,NE,45,0.0,0.0,78,0.00,,CLR,0.00,VWS V14.00,2013-04-27 13:11:00,
2013-04-27 06:16:00,44.0,37.6,31.04,NE,45,0.0,0.0,78,0.00,,CLR,0.00,VWS V14.00,2013-04-27 13:16:00,
2013-04-27 06:21:00,43.7,37.3,31.04,NE,45,0.0,0.0,78,0.00,,CLR,0.00,VWS V14.00,2013-04-27 13:21:00,
2013-04-27 06:26:00,43.7,37.3,31.04,NE,45,0.0,0.0,78,0.00,,CLR,0.00,VWS V14.00,2013-04-27 13:26:00,
2013-04-27 06:31:00,43.7,37.3,31.04,NE,45,0.0,0.0,78,0.00,,CLR,0.00,VWS V14.00,2013-04-27 13:31:00,
2013-04-27 06:36:00,43.8,37.4,31.04,NE,45,0.0,0.0,78,0.00,,CLR,0.00,VWS V14.00,2013-04-27 13:36:00,
2013-04-27 06:41:00,43.8,38.0,31.04,NE,45,0.0,0.0,80,0.00,,CLR,0.00,VWS V14.00,2013-04-27 13:41:00,
2013-04-27 06:48:00,45.1,39.6,31.04,NNE,22,1.5,1.5,81,0.00,,CLR,0.00,VWS V14.00,2013-04-27 13:48:00,
2013-04-27 06:53:00,47.3,40.5,31.05,North,0,5.3,5.3,77,0.00,,CLR,0.00,VWS V14.00,2013-04-27 13:53:00,
2013-04-27 06:58:00,47.4,39.9,31.05,North,0,7.8,7.8,75,0.00,,CLR,0.00,VWS V14.00,2013-04-27 13:58:00,
2013-04-27 07:03:00,46.9,39.7,31.05,North,0,8.5,8.5,76,0.00,,CLR,0.00,VWS V14.00,2013-04-27 14:03:00,
2013-04-27 07:08:00,46.5,39.7,31.05,North,0,7.8,7.8,77,0.00,,CLR,0.00,VWS V14.00,2013-04-27 14:08:00,
2013-04-27 07:13:00,46.5,39.7,31.05,NNE,22,8.0,8.0,77,0.00,,CLR,0.00,VWS V14.00,2013-04-27 14:13:00,
2013-04-27 07:18:00,46.2,39.7,31.05,North,0,8.5,8.5,78,0.00,,CLR,0.00,VWS V14.00,2013-04-27 14:18:00,
2013-04-27 07:23:00,46.5,40.0,31.05,North,0,10.0,10.0,78,0.00,,CLR,0.00,VWS V14.00,2013-04-27 14:23:00,
2013-04-27 07:28:00,46.7,39.9,31.05,North,0,11.4,11.4,77,0.00,,CLR,0.00,VWS V14.00,2013-04-27 14:28:00,
2013-04-27 07:33:00,46.7,39.9,31.05,North,0,5.5,5.5,77,0.00,,CLR,0.00,VWS V14.00,2013-04-27 14:33:00,
2013-04-27 07:38:00,47.1,39.9,31.05,North,0,3.5,3.5,76,0.00,,CLR,0.00,VWS V14.00,2013-04-27 14:38:00,
2013-04-27 07:43:00,47.4,40.2,31.05,North,0,6.0,6.0,76,0.00,,CLR,0.00,VWS V14.00,2013-04-27 14:43:00,
2013-04-27 07:48:00,48.0,40.1,31.05,North,0,6.0,6.0,74,0.00,,CLR,0.00,VWS V14.00,2013-04-27 14:48:00,
2013-04-27 07:53:00,48.5,40.2,31.05,NNE,22,0.0,0.0,73,0.00,,CLR,0.00,VWS V14.00,2013-04-27 14:53:00,
2013-04-27 07:58:00,48.7,40.5,31.05,North,0,4.9,4.9,73,0.00,,CLR,0.00,VWS V14.00,2013-04-27 14:58:00,
2013-04-27 08:03:00,49.2,40.9,31.05,North,0,2.2,2.2,73,0.00,,CLR,0.00,VWS V14.00,2013-04-27 15:03:00,
2013-04-27 08:08:00,50.0,41.3,31.05,North,0,2.0,2.0,72,0.00,,CLR,0.00,VWS V14.00,2013-04-27 15:08:00,
2013-04-27 08:13:00,50.5,41.8,31.05,NNE,22,5.8,5.8,72,0.00,,CLR,0.00,VWS V14.00,2013-04-27 15:13:00,
2013-04-27 08:18:00,49.8,41.2,31.05,North,0,6.4,6.4,72,0.00,,CLR,0.00,VWS V14.00,2013-04-27 15:18:00,
2013-04-27 08:23:00,49.6,41.3,31.06,North,0,4.2,4.2,73,0.00,,CLR,0.00,VWS V14.00,2013-04-27 15:23:00,
2013-04-27 08:28:00,51.4,42.0,31.06,North,0,6.0,6.0,70,0.00,,CLR,0.00,VWS V14.00,2013-04-27 15:28:00,
2013-04-27 08:33:00,53.2,42.9,31.06,North,0,7.3,7.3,68,0.00,,CLR,0.00,VWS V14.00,2013-04-27 15:33:00,
2013-04-27 08:38:00,53.9,43.2,31.06,North,0,8.0,8.0,67,0.00,,CLR,0.00,VWS V14.00,2013-04-27 15:38:00,
2013-04-27 08:43:00,53.9,42.4,31.06,North,0,8.0,8.0,65,0.00,,CLR,0.00,VWS V14.00,2013-04-27 15:43:00,
2013-04-27 08:48:00,54.5,43.0,31.06,NNE,22,6.0,6.0,65,0.00,,CLR,0.00,VWS V14.00,2013-04-27 15:48:00,
2013-04-27 08:53:00,55.4,42.2,31.06,NNE,22,8.0,8.0,61,0.00,,CLR,0.00,VWS V14.00,2013-04-27 15:53:00,
2013-04-27 08:58:00,55.9,42.7,31.06,North,0,8.9,8.9,61,0.00,,CLR,0.00,VWS V14.00,2013-04-27 15:58:00,
2013-04-27 09:03:00,56.1,42.8,31.07,North,0,7.1,7.1,61,0.00,,CLR,0.00,VWS V14.00,2013-04-27 16:03:00,
2013-04-27 09:08:00,56.3,42.6,31.07,North,0,9.1,9.1,60,0.00,,CLR,0.00,VWS V14.00,2013-04-27 16:08:00,
2013-04-27 09:13:00,56.4,42.7,31.07,North,0,11.1,11.1,60,0.00,,CLR,0.00,VWS V14.00,2013-04-27 16:13:00,
2013-04-27 09:18:00,57.0,43.3,31.07,NNE,22,10.9,10.9,60,0.00,,CLR,0.00,VWS V14.00,2013-04-27 16:18:00,
2013-04-27 09:23:00,57.3,43.1,31.07,North,0,10.2,10.2,59,0.00,,CLR,0.00,VWS V14.00,2013-04-27 16:23:00,
2013-04-27 09:28:00,56.4,43.1,31.07,North,0,3.5,3.5,61,0.00,,CLR,0.00,VWS V14.00,2013-04-27 16:28:00,
2013-04-27 09:33:00,56.1,42.8,31.07,North,0,9.1,9.1,61,0.00,,CLR,0.00,VWS V14.00,2013-04-27 16:33:00,
2013-04-27 09:38:00,56.3,43.5,31.07,North,0,8.9,8.9,62,0.00,,CLR,0.00,VWS V14.00,2013-04-27 16:38:00,
2013-04-27 09:43:00,57.0,43.7,31.07,NNW,338,10.7,10.7,61,0.00,,CLR,0.00,VWS V14.00,2013-04-27 16:43:00,
2013-04-27 09:48:00,56.6,43.8,31.07,North,0,10.9,10.9,62,0.00,,CLR,0.00,VWS V14.00,2013-04-27 16:48:00,
2013-04-27 09:53:00,56.3,43.5,31.07,North,0,8.5,8.5,62,0.00,,CLR,0.00,VWS V14.00,2013-04-27 16:53:00,
2013-04-27 09:58:00,56.4,43.1,31.07,NNE,22,7.6,7.6,61,0.00,,CLR,0.00,VWS V14.00,2013-04-27 16:58:00,
2013-04-27 10:03:00,57.0,43.7,31.07,NNE,22,7.8,7.8,61,0.00,,CLR,0.00,VWS V14.00,2013-04-27 17:03:00,
2013-04-27 10:08:00,58.8,44.1,31.07,NNE,22,7.6,7.6,58,0.00,,CLR,0.00,VWS V14.00,2013-04-27 17:08:00,
2013-04-27 10:13:00,60.0,43.8,31.07,North,0,7.8,7.8,55,0.00,,CLR,0.00,VWS V14.00,2013-04-27 17:13:00,
2013-04-27 10:18:00,59.5,43.8,31.07,NNE,22,10.7,10.7,56,0.00,,CLR,0.00,VWS V14.00,2013-04-27 17:18:00,
2013-04-27 10:23:00,59.3,44.1,31.06,North,0,10.5,10.5,57,0.00,,CLR,0.00,VWS V14.00,2013-04-27 17:23:00,
2013-04-27 10:28:00,60.9,44.6,31.07,NNE,22,8.2,8.2,55,1.06,,CLR,1.06,VWS V14.00,2013-04-27 17:28:00,
2013-04-27 10:33:00,62.4,44.6,31.07,North,0,8.0,8.0,52,1.06,,CLR,1.06,VWS V14.00,2013-04-27 17:33:00,
2013-04-27 10:38:00,61.7,42.9,31.07,North,0,7.8,7.8,50,1.06,,CLR,1.06,VWS V14.00,2013-04-27 17:38:00,
2013-04-27 10:43:00,60.6,42.4,31.07,North,0,9.3,9.3,51,1.06,,CLR,1.06,VWS V14.00,2013-04-27 17:43:00,
2013-04-27 10:48:00,60.8,42.6,31.07,NNE,22,4.6,4.6,51,1.06,,CLR,1.06,VWS V14.00,2013-04-27 17:48:00,
2013-04-27 10:53:00,60.9,41.6,31.06,NNE,22,1.5,1.5,49,1.06,,CLR,1.06,VWS V14.00,2013-04-27 17:53:00,
2013-04-27 10:58:00,60.9,42.2,31.06,NNE,22,7.1,7.1,50,1.06,,CLR,1.06,VWS V14.00,2013-04-27 17:58:00,
2013-04-27 11:03:00,61.3,42.5,31.06,NNE,22,6.4,6.4,50,1.06,,CLR,1.06,VWS V14.00,2013-04-27 18:03:00,
2013-04-27 11:08:00,61.5,42.7,31.07,NNE,22,2.6,2.6,50,1.06,,CLR,1.06,VWS V14.00,2013-04-27 18:08:00,
2013-04-27 11:13:00,61.3,42.5,31.06,NNE,22,0.0,0.0,50,1.06,,CLR,1.06,VWS V14.00,2013-04-27 18:13:00,
2013-04-27 11:18:00,61.3,43.0,31.06,NNE,22,0.0,0.0,51,1.06,,CLR,1.06,VWS V14.00,2013-04-27 18:18:00,
2013-04-27 11:23:00,61.3,42.5,31.06,NNE,22,3.3,3.3,50,1.06,,CLR,1.06,VWS V14.00,2013-04-27 18:23:00,
2013-04-27 11:28:00,60.9,42.2,31.07,NNE,22,0.0,0.0,50,0.00,,CLR,1.06,VWS V14.00,2013-04-27 18:28:00,
2013-04-27 11:33:00,60.8,42.6,31.07,NNE,22,0.0,0.0,51,0.00,,CLR,1.06,VWS V14.00,2013-04-27 18:33:00,
2013-04-27 11:38:00,61.3,43.0,31.06,NNE,22,0.0,0.0,51,0.00,,CLR,1.06,VWS V14.00,2013-04-27 18:38:00,
2013-04-27 11:43:00,61.8,43.0,31.06,NNE,22,0.0,0.0,50,0.00,,CLR,1.06,VWS V14.00,2013-04-27 18:43:00,
2013-04-27 11:48:00,63.1,44.2,31.06,NNE,22,0.0,0.0,50,0.00,,CLR,1.06,VWS V14.00,2013-04-27 18:48:00,
2013-04-27 11:53:00,64.5,44.9,31.05,NNE,22,0.0,0.0,49,0.00,,CLR,1.06,VWS V14.00,2013-04-27 18:53:00,
2013-04-27 11:58:00,64.7,44.6,31.06,NNE,22,0.0,0.0,48,0.00,,CLR,1.06,VWS V14.00,2013-04-27 18:58:00,
2013-04-27 12:03:00,65.1,44.9,31.06,NNE,22,0.0,0.0,48,0.00,,CLR,1.06,VWS V14.00,2013-04-27 19:03:00,
2013-04-27 12:08:00,65.6,44.8,31.06,NNE,22,0.0,0.0,47,0.00,,CLR,1.06,VWS V14.00,2013-04-27 19:08:00,
2013-04-27 12:13:00,66.0,45.2,31.05,NNE,22,0.0,0.0,47,0.00,,CLR,1.06,VWS V14.00,2013-04-27 19:13:00,
2013-04-27 12:18:00,66.3,43.8,31.06,NNE,22,0.0,0.0,44,0.00,,CLR,1.06,VWS V14.00,2013-04-27 19:18:00,
2013-04-27 12:23:00,66.3,43.8,31.05,NNE,22,0.0,0.0,44,0.00,,CLR,1.06,VWS V14.00,2013-04-27 19:23:00,
2013-04-27 12:28:00,66.5,43.3,31.05,NNE,22,0.0,0.0,43,0.00,,CLR,1.06,VWS V14.00,2013-04-27 19:28:00,
2013-04-27 12:33:00,66.5,41.5,31.05,NNE,22,0.0,0.0,40,0.00,,CLR,1.06,VWS V14.00,2013-04-27 19:33:00,
2013-04-27 12:38:00,66.7,41.6,31.06,NNE,22,0.0,0.0,40,0.00,,CLR,1.06,VWS V14.00,2013-04-27 19:38:00,
2013-04-27 12:43:00,66.9,41.8,31.06,NNE,22,1.3,1.3,40,0.00,,CLR,1.06,VWS V14.00,2013-04-27 19:43:00,
2013-04-27 12:48:00,67.6,41.1,31.06,NNE,22,3.1,3.1,38,0.00,,CLR,1.06,VWS V14.00,2013-04-27 19:48:00,
2013-04-27 12:53:00,69.6,42.2,31.06,NNE,22,2.2,2.2,37,0.00,,CLR,1.06,VWS V14.00,2013-04-27 19:53:00,
2013-04-27 12:58:00,70.8,40.3,31.05,North,0,7.3,7.3,33,0.00,,CLR,1.06,VWS V14.00,2013-04-27 19:58:00,
2013-04-27 13:03:00,70.7,41.0,31.05,North,0,6.4,6.4,34,0.00,,CLR,1.06,VWS V14.00,2013-04-27 20:03:00,
2013-04-27 13:08:00,70.3,44.9,31.05,North,0,8.5,8.5,40,0.00,,CLR,1.06,VWS V14.00,2013-04-27 20:08:00,
2013-04-27 13:13:00,68.1,45.4,31.04,North,0,8.9,8.9,44,0.00,,CLR,1.06,VWS V14.00,2013-04-27 20:13:00,
2013-04-27 13:18:00,65.4,45.2,31.04,North,0,10.0,10.0,48,0.00,,CLR,1.06,VWS V14.00,2013-04-27 20:18:00,
2013-04-27 13:23:00,65.4,46.8,31.04,North,0,7.3,7.3,51,0.00,,CLR,1.06,VWS V14.00,2013-04-27 20:23:00,
2013-04-27 13:28:00,65.8,47.2,31.03,NNE,22,10.7,10.7,51,0.00,,CLR,1.06,VWS V14.00,2013-04-27 20:28:00,
2013-04-27 13:33:00,64.9,46.9,31.04,North,0,14.0,14.0,52,0.00,,CLR,1.06,VWS V14.00,2013-04-27 20:33:00,
2013-04-27 13:37:00,64.9,46.9,31.04,North,0,10.2,10.2,52,0.00,,CLR,1.06,VWS V14.00,2013-04-27 20:37:00,
2013-04-27 13:42:00,64.0,46.5,31.04,North,0,16.5,16.5,53,0.00,,CLR,1.06,VWS V14.00,2013-04-27 20:42:00,
2013-04-27 13:47:00,62.4,46.5,31.05,NNW,338,21.2,21.2,56,0.00,,CLR,1.06,VWS V14.00,2013-04-27 20:47:00,
2013-04-27 13:53:00,61.1,46.7,31.04,NNW,338,16.5,16.5,59,0.00,,CLR,1.06,VWS V14.00,2013-04-27 20:53:00,
2013-04-27 13:57:00,60.6,46.7,31.05,North,0,17.0,17.0,60,0.00,,CLR,1.06,VWS V14.00,2013-04-27 20:57:00,
2013-04-27 14:02:00,60.9,46.5,31.05,North,0,13.6,13.6,59,0.00,,CLR,1.06,VWS V14.00,2013-04-27 21:02:00,
2013-04-27 14:07:00,60.9,46.9,31.05,North,0,13.8,13.8,60,0.00,,CLR,1.06,VWS V14.00,2013-04-27 21:07:00,
2013-04-27 14:12:00,61.3,47.8,31.05,North,0,10.7,10.7,61,0.00,,CLR,1.06,VWS V14.00,2013-04-27 21:12:00,
2013-04-27 14:17:00,61.5,47.5,31.05,North,0,11.6,11.6,60,0.00,,CLR,1.06,VWS V14.00,2013-04-27 21:17:00,
2013-04-27 14:22:00,60.9,46.9,31.05,North,0,18.7,18.7,60,0.00,,CLR,1.06,VWS V14.00,2013-04-27 21:22:00,
2013-04-27 14:27:00,60.6,46.7,31.05,North,0,16.5,16.5,60,0.00,,CLR,1.06,VWS V14.00,2013-04-27 21:27:00,
2013-04-27 14:32:00,60.6,47.1,31.05,NNW,338,10.0,10.0,61,0.00,,CLR,1.06,VWS V14.00,2013-04-27 21:32:00,
2013-04-27 14:37:00,61.1,47.6,31.05,NNW,338,7.8,7.8,61,0.00,,CLR,1.06,VWS V14.00,2013-04-27 21:37:00,
2013-04-27 14:42:00,61.5,47.5,31.05,North,0,12.9,12.9,60,0.00,,CLR,1.06,VWS V14.00,2013-04-27 21:42:00,
2013-04-27 14:47:00,60.9,47.4,31.05,North,0,10.9,10.9,61,0.00,,CLR,1.06,VWS V14.00,2013-04-27 21:47:00,
2013-04-27 14:52:00,61.1,47.6,31.05,NW,315,11.1,11.1,61,0.00,,CLR,1.06,VWS V14.00,2013-04-27 21:52:00,
2013-04-27 14:57:00,61.3,47.8,31.05,NNW,338,17.0,17.0,61,0.00,,CLR,1.06,VWS V14.00,2013-04-27 21:57:00,
2013-04-27 15:02:00,60.9,47.4,31.05,NNW,338,15.8,15.8,61,0.00,,BKN065,1.06,VWS V14.00,2013-04-27 22:02:00,
2013-04-27 15:07:00,60.6,47.1,31.05,NNW,338,13.1,13.1,61,0.00,,BKN065,1.06,VWS V14.00,2013-04-27 22:07:00,
2013-04-27 15:12:00,60.6,47.1,31.05,NNW,338,14.3,14.3,61,0.00,,BKN065,1.06,VWS V14.00,2013-04-27 22:12:00,
2013-04-27 15:17:00,60.0,47.4,31.05,North,0,21.0,21.0,63,0.00,,BKN065,1.06,VWS V14.00,2013-04-27 22:17:00,
2013-04-27 15:22:00,59.7,47.5,31.05,North,0,19.2,19.2,64,0.00,,BKN065,1.06,VWS V14.00,2013-04-27 22:22:00,
2013-04-27 15:27:00,60.2,47.6,31.04,NNW,338,14.5,14.5,63,0.00,,BKN065,1.06,VWS V14.00,2013-04-27 22:27:00,
2013-04-27 15:32:00,60.9,47.8,31.04,North,0,8.9,8.9,62,0.00,,BKN065,1.06,VWS V14.00,2013-04-27 22:32:00,
2013-04-27 15:37:00,61.5,47.9,31.04,NNW,338,12.7,12.7,61,0.00,,BKN065,1.06,VWS V14.00,2013-04-27 22:37:00,
2013-04-27 15:42:00,61.3,47.8,31.04,North,0,16.7,16.7,61,0.00,,BKN065,1.06,VWS V14.00,2013-04-27 22:42:00,
2013-04-27 15:47:00,60.9,47.4,31.03,North,0,10.5,10.5,61,0.00,,BKN065,1.06,VWS V14.00,2013-04-27 22:47:00,
2013-04-27 15:52:00,60.4,47.3,31.03,North,0,12.3,12.3,62,0.00,,BKN065,1.06,VWS V14.00,2013-04-27 22:52:00,
2013-04-27 15:57:00,60.0,47.4,31.03,NNW,338,13.4,13.4,63,0.00,,BKN065,1.06,VWS V14.00,2013-04-27 22:57:00,
2013-04-27 16:02:00,59.5,46.9,31.03,North,0,14.9,15.2,63,0.00,,CLR,1.06,VWS V14.00,2013-04-27 23:02:00,
2013-04-27 16:07:00,58.8,46.7,31.03,North,0,13.1,13.1,64,0.00,,CLR,1.06,VWS V14.00,2013-04-27 23:07:00,
2013-04-27 16:12:00,58.8,46.7,31.03,NNW,338,14.5,15.4,64,0.00,,CLR,1.06,VWS V14.00,2013-04-27 23:12:00,
2013-04-27 16:17:00,58.6,46.5,31.02,North,0,12.7,12.7,64,0.00,,CLR,1.06,VWS V14.00,2013-04-27 23:17:00,
2013-04-27 16:22:00,58.4,46.3,31.02,North,0,13.4,13.4,64,0.00,,CLR,1.06,VWS V14.00,2013-04-27 23:22:00,
2013-04-27 16:27:00,58.2,46.1,31.02,NNE,22,6.7,10.2,64,0.00,,CLR,1.06,VWS V14.00,2013-04-27 23:27:00,
2013-04-27 16:32:00,58.1,46.0,31.02,NNE,22,6.4,6.4,64,0.00,,CLR,1.06,VWS V14.00,2013-04-27 23:32:00,
2013-04-27 16:37:00,57.9,46.2,31.02,NNE,22,12.0,12.0,65,0.00,,CLR,1.06,VWS V14.00,2013-04-27 23:37:00,
2013-04-27 16:42:00,57.5,45.8,31.03,North,0,11.4,11.4,65,0.00,,CLR,1.06,VWS V14.00,2013-04-27 23:42:00,
2013-04-27 16:47:00,57.3,45.7,31.03,North,0,11.6,11.6,65,0.00,,CLR,1.06,VWS V14.00,2013-04-27 23:47:00,
2013-04-27 16:52:00,56.8,45.6,31.02,North,0,11.6,11.6,66,0.00,,CLR,1.06,VWS V14.00,2013-04-27 23:52:00,
2013-04-27 16:57:00,56.3,45.5,31.03,NNW,338,10.7,10.7,67,0.00,,CLR,1.06,VWS V14.00,2013-04-27 23:57:00,
2013-04-27 17:02:00,55.9,45.9,31.02,North,0,14.9,14.9,69,0.00,,CLR,1.06,VWS V14.00,2013-04-28 00:02:00,
2013-04-27 17:07:00,55.4,45.4,31.04,North,0,8.2,8.2,69,0.00,,CLR,1.06,VWS V14.00,2013-04-28 00:07:00,
2013-04-27 17:12:00,55.2,45.6,31.04,NNW,338,14.9,14.9,70,0.00,,CLR,1.06,VWS V14.00,2013-04-28 00:12:00,
2013-04-27 17:17:00,54.6,45.8,31.04,North,0,14.0,14.0,72,0.00,,CLR,1.06,VWS V14.00,2013-04-28 00:17:00,
2013-04-27 17:22:00,54.3,45.8,31.05,NNW,338,12.0,12.0,73,0.00,,CLR,1.06,VWS V14.00,2013-04-28 00:22:00,
2013-04-27 17:27:00,53.9,46.2,31.04,NNW,338,9.6,9.6,75,0.00,,CLR,1.06,VWS V14.00,2013-04-28 00:27:00,
2013-04-27 17:32:00,53.7,46.3,31.04,NNW,338,8.9,8.9,76,0.00,,CLR,1.06,VWS V14.00,2013-04-28 00:32:00,
2013-04-27 17:37:00,53.6,46.2,31.04,NNW,338,11.1,11.1,76,0.00,,CLR,1.06,VWS V14.00,2013-04-28 00:37:00,
2013-04-27 17:42:00,53.4,46.4,31.04,NNE,22,8.9,8.9,77,0.00,,CLR,1.06,VWS V14.00,2013-04-28 00:42:00,
2013-04-27 17:47:00,52.8,46.1,31.04,North,0,2.9,2.9,78,0.00,,CLR,1.06,VWS V14.00,2013-04-28 00:47:00,
2013-04-27 17:52:00,52.8,46.5,31.05,NNW,338,10.0,10.0,79,0.00,,CLR,1.06,VWS V14.00,2013-04-28 00:52:00,
2013-04-27 17:57:00,52.8,46.5,31.05,NNW,338,11.1,11.1,79,0.00,,CLR,1.06,VWS V14.00,2013-04-28 00:57:00,
2013-04-27 18:02:00,52.8,46.1,31.04,North,0,12.5,12.5,78,0.00,,CLR,1.06,VWS V14.00,2013-04-28 01:02:00,
2013-04-27 18:07:00,52.7,46.4,31.05,North,0,7.1,7.1,79,0.00,,CLR,1.06,VWS V14.00,2013-04-28 01:07:00,
2013-04-27 18:12:00,52.7,46.4,31.04,NNW,338,14.0,14.0,79,0.00,,CLR,1.06,VWS V14.00,2013-04-28 01:12:00,
2013-04-27 18:17:00,52.5,46.5,31.04,North,0,11.6,11.6,80,0.00,,CLR,1.06,VWS V14.00,2013-04-28 01:17:00,
2013-04-27 18:22:00,52.5,46.5,31.03,North,0,11.6,11.6,80,0.00,,CLR,1.06,VWS V14.00,2013-04-28 01:22:00,
2013-04-27 18:27:00,52.5,46.5,31.02,NNW,338,9.3,9.3,80,0.00,,CLR,1.06,VWS V14.00,2013-04-28 01:27:00,
2013-04-27 18:32:00,52.5,46.5,31.02,North,0,10.2,10.2,80,0.00,,CLR,1.06,VWS V14.00,2013-04-28 01:32:00,
2013-04-27 18:37:00,52.5,46.5,31.02,North,0,11.6,11.6,80,0.00,,CLR,1.06,VWS V14.00,2013-04-28 01:37:00,
2013-04-27 18:42:00,52.5,46.5,31.03,North,0,10.2,10.2,80,0.00,,-RA,1.06,VWS V14.00,2013-04-28 01:42:00,
2013-04-27 18:47:00,52.3,46.7,31.03,North,0,12.5,12.5,81,0.00,,-RA,1.06,VWS V14.00,2013-04-28 01:47:00,
2013-04-27 18:52:00,52.3,46.7,31.04,North,0,11.4,11.4,81,0.00,,-RA,1.06,VWS V14.00,2013-04-28 01:52:00,
2013-04-27 18:57:00,52.3,46.7,31.03,North,0,10.9,10.9,81,0.00,,-RA,1.06,VWS V14.00,2013-04-28 01:57:00,
2013-04-27 19:02:00,52.3,46.3,31.04,NNW,338,9.6,9.6,80,0.00,,-RA,1.06,VWS V14.00,2013-04-28 02:02:00,
2013-04-27 19:07:00,52.3,46.3,31.03,NNW,338,16.7,16.7,80,0.00,,-RA,1.06,VWS V14.00,2013-04-28 02:07:00,
2013-04-27 19:12:00,52.3,46.3,31.03,North,0,11.4,11.4,80,0.00,,-RA,1.06,VWS V14.00,2013-04-28 02:12:00,
2013-04-27 19:17:00,52.3,46.7,31.03,North,0,13.6,13.6,81,0.00,,-RA,1.06,VWS V14.00,2013-04-28 02:17:00,
2013-04-27 19:22:00,52.3,46.7,31.03,North,0,11.4,11.4,81,0.00,,-RA,1.06,VWS V14.00,2013-04-28 02:22:00,
2013-04-27 19:27:00,52.1,46.5,31.04,NNW,338,6.7,6.7,81,0.00,,-RA,1.06,VWS V14.00,2013-04-28 02:27:00,
2013-04-27 19:32:00,52.1,46.5,31.04,North,0,8.0,8.0,81,0.00,,-RA,1.06,VWS V14.00,2013-04-28 02:32:00,
2013-04-27 19:37:00,51.9,46.3,31.04,NNW,338,16.3,16.3,81,0.00,,-RA,1.06,VWS V14.00,2013-04-28 02:37:00,
2013-04-27 19:42:00,51.9,46.3,31.04,NNW,338,10.0,10.0,81,0.00,,OVC100,1.06,VWS V14.00,2013-04-28 02:42:00,
2013-04-27 19:47:00,51.9,46.3,31.04,NNW,338,10.9,10.9,81,0.00,,OVC100,1.06,VWS V14.00,2013-04-28 02:47:00,
2013-04-27 19:52:00,51.9,46.3,31.04,NW,315,6.0,6.0,81,0.00,,OVC100,1.06,VWS V14.00,2013-04-28 02:52:00,
2013-04-27 19:57:00,51.8,45.8,31.04,North,0,8.5,8.5,80,0.00,,OVC100,1.06,VWS V14.00,2013-04-28 02:57:00,
2013-04-27 20:02:00,51.8,45.8,31.04,NNW,338,9.6,9.6,80,0.00,,OVC100,1.06,VWS V14.00,2013-04-28 03:02:00,
2013-04-27 20:07:00,51.8,46.2,31.04,North,0,14.7,14.7,81,0.00,,OVC100,1.06,VWS V14.00,2013-04-28 03:07:00,
2013-04-27 20:12:00,51.8,46.2,31.05,North,0,8.2,8.2,81,0.00,,OVC100,1.06,VWS V14.00,2013-04-28 03:12:00,
2013-04-27 20:17:00,51.8,46.2,31.05,North,0,12.0,12.0,81,0.00,,OVC100,1.06,VWS V14.00,2013-04-28 03:17:00,
2013-04-27 20:22:00,51.6,46.0,31.05,NNW,338,12.9,12.9,81,0.00,,OVC100,1.06,VWS V14.00,2013-04-28 03:22:00,
2013-04-27 20:27:00,51.8,46.2,31.05,North,0,12.0,12.0,81,0.00,,OVC100,1.06,VWS V14.00,2013-04-28 03:27:00,
2013-04-27 20:32:00,51.6,46.0,31.05,North,0,12.9,12.9,81,0.00,,OVC100,1.06,VWS V14.00,2013-04-28 03:32:00,
2013-04-27 20:37:00,51.6,46.0,31.05,North,0,11.1,11.1,81,0.00,,OVC100,1.06,VWS V14.00,2013-04-28 03:37:00,
2013-04-27 20:42:00,51.6,46.0,31.05,North,0,6.4,6.4,81,0.00,,OVC100,1.06,VWS V14.00,2013-04-28 03:42:00,
2013-04-27 20:47:00,51.6,46.0,31.05,North,0,6.4,6.4,81,0.00,,OVC100,1.06,VWS V14.00,2013-04-28 03:47:00,
2013-04-27 20:52:00,51.6,46.0,31.05,NNW,338,10.5,10.5,81,0.00,,OVC100,1.06,VWS V14.00,2013-04-28 03:52:00,
2013-04-27 20:57:00,51.6,46.0,31.06,NNE,22,7.8,7.8,81,0.00,,OVC100,1.06,VWS V14.00,2013-04-28 03:57:00,
2013-04-27 21:01:00,51.6,46.0,31.06,North,0,6.4,6.4,81,0.00,,OVC110,1.06,VWS V14.00,2013-04-28 04:01:00,
2013-04-27 21:06:00,51.8,46.2,31.06,North,0,7.8,7.8,81,0.00,,OVC110,1.06,VWS V14.00,2013-04-28 04:06:00,
2013-04-27 21:11:00,51.8,46.2,31.06,NNW,338,5.5,5.5,81,0.00,,OVC110,1.06,VWS V14.00,2013-04-28 04:11:00,
2013-04-27 21:16:00,51.8,46.2,31.06,NNE,22,6.2,6.2,81,0.00,,OVC110,1.06,VWS V14.00,2013-04-28 04:16:00,
2013-04-27 21:21:00,51.8,46.2,31.06,North,0,9.3,9.3,81,0.00,,OVC110,1.06,VWS V14.00,2013-04-28 04:21:00,
2013-04-27 21:26:00,51.9,46.3,31.07,North,0,6.9,6.9,81,0.00,,OVC110,1.06,VWS V14.00,2013-04-28 04:26:00,
2013-04-27 21:31:00,51.9,46.3,31.07,NNE,22,6.9,6.9,81,0.00,,OVC110,1.06,VWS V14.00,2013-04-28 04:31:00,
2013-04-27 21:36:00,51.9,46.3,31.07,North,0,7.1,7.1,81,0.00,,OVC110,1.06,VWS V14.00,2013-04-28 04:36:00,
2013-04-27 21:41:00,51.8,46.2,31.07,North,0,5.1,5.1,81,0.00,,OVC070,1.06,VWS V14.00,2013-04-28 04:41:00,
2013-04-27 21:46:00,51.8,46.2,31.07,North,0,5.3,5.3,81,0.00,,OVC070,1.06,VWS V14.00,2013-04-28 04:46:00,
2013-04-27 21:51:00,51.8,46.2,31.07,NNW,338,6.7,6.7,81,0.00,,OVC070,1.06,VWS V14.00,2013-04-28 04:51:00,
2013-04-27 21:56:00,51.8,46.2,31.07,NNE,22,5.1,5.1,81,0.00,,OVC070,1.06,VWS V14.00,2013-04-28 04:56:00,
2013-04-27 22:01:00,51.8,46.2,31.07,NNW,338,7.1,7.1,81,0.00,,OVC070,1.06,VWS V14.00,2013-04-28 05:01:00,
2013-04-27 22:06:00,51.6,46.0,31.07,NNE,22,0.0,0.0,81,0.00,,OVC070,1.06,VWS V14.00,2013-04-28 05:06:00,
2013-04-27 22:11:00,51.6,46.0,31.07,North,0,6.9,6.9,81,0.00,,OVC070,1.06,VWS V14.00,2013-04-28 05:11:00,
2013-04-27 22:16:00,51.6,46.0,31.07,North,0,7.3,7.3,81,0.00,,OVC070,1.06,VWS V14.00,2013-04-28 05:16:00,
2013-04-27 22:21:00,51.6,46.0,31.07,North,0,6.7,6.7,81,0.00,,OVC070,1.06,VWS V14.00,2013-04-28 05:21:00,
2013-04-27 22:26:00,51.6,46.0,31.07,North,0,4.4,4.4,81,0.00,,OVC070,1.06,VWS V14.00,2013-04-28 05:26:00,
2013-04-27 22:31:00,51.6,46.0,31.07,North,0,2.4,2.4,81,0.00,,OVC070,1.06,VWS V14.00,2013-04-28 05:31:00,
2013-04-27 22:36:00,51.6,46.0,31.07,North,0,4.0,4.0,81,0.00,,OVC070,1.06,VWS V14.00,2013-04-28 05:36:00,
2013-04-27 22:41:00,51.6,46.0,31.07,NNW,338,3.5,3.5,81,0.00,,OVC070,1.06,VWS V14.00,2013-04-28 05:41:00,
2013-04-27 22:46:00,51.6,46.0,31.07,North,0,4.4,4.4,81,0.00,,OVC070,1.06,VWS V14.00,2013-04-28 05:46:00,
2013-04-27 22:51:00,51.6,46.0,31.07,North,0,1.1,1.1,81,0.00,,OVC070,1.06,VWS V14.00,2013-04-28 05:51:00,
2013-04-27 22:56:00,51.6,46.0,31.06,NNW,338,0.0,0.0,81,0.00,,OVC070,1.06,VWS V14.00,2013-04-28 05:56:00,
2013-04-27 23:01:00,51.6,46.0,31.06,NNW,338,6.2,6.2,81,0.00,,OVC100,1.06,VWS V14.00,2013-04-28 06:01:00,
2013-04-27 23:06:00,51.6,46.0,31.07,North,0,0.0,0.0,81,0.00,,OVC100,1.06,VWS V14.00,2013-04-28 06:06:00,
2013-04-27 23:11:00,51.6,46.0,31.07,North,0,4.0,4.0,81,0.00,,OVC100,1.06,VWS V14.00,2013-04-28 06:11:00,
2013-04-27 23:16:00,51.6,46.0,31.07,NNW,338,0.0,0.0,81,0.00,,OVC100,1.06,VWS V14.00,2013-04-28 06:16:00,
2013-04-27 23:21:00,51.6,46.0,31.07,NNW,338,2.9,2.9,81,0.00,,OVC100,1.06,VWS V14.00,2013-04-28 06:21:00,
2013-04-27 23:26:00,51.6,46.0,31.07,NNW,338,0.0,0.0,81,0.00,,OVC100,1.06,VWS V14.00,2013-04-28 06:26:00,
2013-04-27 23:31:00,51.6,46.0,31.07,NNW,338,0.0,0.0,81,0.00,,OVC100,1.06,VWS V14.00,2013-04-28 06:31:00,
2013-04-27 23:36:00,51.6,46.0,31.07,NNW,338,0.0,0.0,81,0.00,,OVC100,1.06,VWS V14.00,2013-04-28 06:36:00,
2013-04-27 23:41:00,51.6,46.0,31.06,NNW,338,0.0,0.0,81,0.00,,OVC095,1.06,VWS V14.00,2013-04-28 06:41:00,
2013-04-27 23:46:00,51.6,46.0,31.06,NNW,338,0.0,0.0,81,0.00,,OVC095,1.06,VWS V14.00,2013-04-28 06:46:00,
2013-04-27 23:51:00,51.6,46.0,31.06,NNW,338,0.0,0.0,81,0.00,,OVC095,1.06,VWS V14.00,2013-04-28 06:51:00,
2013-04-27 23:56:00,51.6,46.0,31.06,NNW,338,0.0,0.0,81,0.00,,OVC095,1.06,VWS V14.00,2013-04-28 06:56:00,